createdAt,value
2019-04-30T00:02:09.608Z,16.13
2019-04-30T00:04:42.625Z,16.57
2019-04-30T00:07:15.487Z,16.27
2019-04-30T00:09:44.956Z,17.23
2019-04-30T00:12:13.400Z,20.03
2019-04-30T00:14:41.801Z,19.30
2019-04-30T00:17:10.692Z,17.13
2019-04-30T00:19:40.321Z,18.63
2019-04-30T00:22:08.720Z,18.40
2019-04-30T00:24:39.879Z,18.30
2019-04-30T00:27:07.237Z,19.27
2019-04-30T00:29:35.716Z,19.73
2019-04-30T00:32:07.640Z,20.57
2019-04-30T00:34:35.966Z,20.20
2019-04-30T00:37:07.420Z,21.97
2019-04-30T00:39:35.561Z,20.50
2019-04-30T00:42:05.352Z,20.60
2019-04-30T00:44:35.550Z,21.60
2019-04-30T00:47:08.249Z,21.37
2019-04-30T00:49:35.377Z,23.47
2019-04-30T00:52:05.161Z,20.47
2019-04-30T00:54:35.168Z,21.93
2019-04-30T00:57:07.543Z,22.67
2019-04-30T00:59:35.090Z,20.20
2019-04-30T01:02:06.086Z,20.57
2019-04-30T01:04:36.686Z,23.07
2019-04-30T01:07:08.654Z,19.60
2019-04-30T01:09:39.602Z,21.17
2019-04-30T01:12:07.164Z,20.87
2019-04-30T01:14:35.561Z,22.37
2019-04-30T01:17:08.218Z,19.10
2019-04-30T01:19:34.244Z,22.40
2019-04-30T01:22:02.693Z,22.47
2019-04-30T01:24:33.149Z,22.00
2019-04-30T01:27:06.864Z,22.97
2019-04-30T01:29:41.490Z,24.00
2019-04-30T01:32:04.264Z,21.73
2019-04-30T01:34:32.661Z,22.47
2019-04-30T01:37:01.056Z,23.57
2019-04-30T01:39:31.556Z,25.27
2019-04-30T01:42:02.941Z,26.30
2019-04-30T01:44:29.701Z,25.90
2019-04-30T01:46:58.803Z,25.40
2019-04-30T01:49:30.070Z,22.53
2019-04-30T01:52:00.494Z,24.93
2019-04-30T01:54:29.132Z,24.70
2019-04-30T01:57:16.156Z,24.87
2019-04-30T02:00:02.724Z,24.80
2019-04-30T02:02:35.852Z,23.77
2019-04-30T02:05:08.808Z,26.53
2019-04-30T02:07:38.789Z,23.63
2019-04-30T02:10:09.022Z,27.43
2019-04-30T02:12:39.181Z,26.83
2019-04-30T02:15:09.453Z,26.80
2019-04-30T02:17:38.866Z,26.60
2019-04-30T02:20:09.009Z,27.13
2019-04-30T02:22:38.971Z,28.23
2019-04-30T02:25:09.645Z,27.20
2019-04-30T02:27:39.064Z,29.50
2019-04-30T02:30:11.078Z,29.80
2019-04-30T02:32:39.581Z,28.67
2019-04-30T02:35:11.282Z,26.23
2019-04-30T02:37:59.595Z,27.20
2019-04-30T02:40:30.187Z,27.87
2019-04-30T02:43:01.822Z,31.10
2019-04-30T02:45:30.033Z,28.47
2019-04-30T02:48:02.709Z,27.27
2019-04-30T02:50:34.537Z,26.70
2019-04-30T02:53:06.028Z,29.97
2019-04-30T02:55:42.937Z,29.93
2019-04-30T02:58:12.782Z,29.80
2019-04-30T03:00:41.256Z,31.20
2019-04-30T03:03:10.271Z,29.00
2019-04-30T03:05:40.297Z,30.20
2019-04-30T03:08:09.600Z,30.83
2019-04-30T03:10:40.173Z,31.07
2019-04-30T03:13:09.795Z,29.03
2019-04-30T03:15:39.526Z,29.50
2019-04-30T03:18:16.475Z,29.77
2019-04-30T03:20:46.510Z,34.40
2019-04-30T03:23:14.916Z,33.57
2019-04-30T03:25:43.303Z,32.03
2019-04-30T03:28:11.699Z,31.43
2019-04-30T03:30:41.916Z,31.70
2019-04-30T03:33:12.675Z,29.63
2019-04-30T03:35:46.644Z,28.77
2019-04-30T03:38:10.455Z,31.60
2019-04-30T03:40:40.471Z,32.80
2019-04-30T03:43:10.338Z,31.53
2019-04-30T03:45:40.210Z,34.13
2019-04-30T03:48:10.152Z,30.90
2019-04-30T03:50:50.200Z,32.20
2019-04-30T03:53:10.453Z,32.17
2019-04-30T03:55:40.158Z,34.77
2019-04-30T03:58:09.454Z,31.47
2019-04-30T04:00:46.731Z,32.50
2019-04-30T04:03:16.736Z,33.27
2019-04-30T04:05:49.771Z,34.13
2019-04-30T04:08:29.390Z,31.67
2019-04-30T04:11:00.536Z,35.00
2019-04-30T04:13:30.128Z,34.20
2019-04-30T04:15:59.913Z,33.53
2019-04-30T04:18:30.180Z,36.57
2019-04-30T04:21:08.905Z,35.33
2019-04-30T04:23:32.828Z,36.27
2019-04-30T04:25:59.682Z,35.07
2019-04-30T04:28:29.961Z,33.37
2019-04-30T04:31:00.138Z,34.63
2019-04-30T04:33:29.662Z,35.83
2019-04-30T04:35:59.778Z,36.73
2019-04-30T04:38:30.340Z,37.67
2019-04-30T04:41:02.661Z,38.50
2019-04-30T04:43:30.041Z,37.77
2019-04-30T04:45:59.420Z,36.67
2019-04-30T04:48:29.793Z,34.10
2019-04-30T04:51:00.040Z,36.13
2019-04-30T04:53:30.475Z,37.97
2019-04-30T04:55:59.933Z,36.23
2019-04-30T04:58:30.327Z,37.73
2019-04-30T05:00:59.291Z,39.90
2019-04-30T05:03:30.778Z,36.23
2019-04-30T05:06:01.902Z,38.93
2019-04-30T05:08:29.301Z,37.33
2019-04-30T05:10:59.351Z,38.33
2019-04-30T05:13:29.072Z,36.93
2019-04-30T05:15:59.395Z,39.20
2019-04-30T05:18:29.097Z,36.20
2019-04-30T05:20:59.016Z,39.00
2019-04-30T05:23:29.831Z,35.33
2019-04-30T05:25:58.949Z,36.53
2019-04-30T05:28:29.927Z,37.97
2019-04-30T05:30:59.387Z,38.80
2019-04-30T05:33:28.603Z,37.33
2019-04-30T05:35:59.244Z,42.80
2019-04-30T05:38:28.683Z,39.17
2019-04-30T05:40:59.444Z,33.93
2019-04-30T05:43:28.960Z,42.77
2019-04-30T05:45:58.677Z,33.27
2019-04-30T05:48:28.582Z,34.43
2019-04-30T05:50:59.102Z,35.63
2019-04-30T05:53:28.682Z,40.57
2019-04-30T05:55:59.267Z,33.80
2019-04-30T05:58:29.774Z,35.53
2019-04-30T06:00:59.720Z,35.67
2019-04-30T06:03:32.939Z,38.77
2019-04-30T06:05:58.937Z,37.03
2019-04-30T06:08:29.314Z,35.97
2019-04-30T06:10:59.832Z,34.47
2019-04-30T06:13:32.017Z,35.57
2019-04-30T06:16:01.760Z,33.40
2019-04-30T06:18:30.233Z,36.07
2019-04-30T06:20:59.880Z,34.97
2019-04-30T06:23:29.391Z,38.53
2019-04-30T06:26:08.697Z,34.50
2019-04-30T06:28:30.893Z,31.70
2019-04-30T06:30:59.355Z,35.03
2019-04-30T06:33:29.103Z,31.80
2019-04-30T06:36:00.575Z,34.17
2019-04-30T06:38:29.165Z,32.37
2019-04-30T06:40:58.882Z,30.97
2019-04-30T06:43:28.764Z,29.90
2019-04-30T06:45:58.944Z,29.07
2019-04-30T06:48:30.570Z,29.47
2019-04-30T06:50:59.341Z,28.53
2019-04-30T06:53:29.231Z,27.70
2019-04-30T06:55:58.988Z,26.33
2019-04-30T06:58:29.155Z,29.17
2019-04-30T07:00:59.551Z,28.47
2019-04-30T07:03:29.074Z,27.87
2019-04-30T07:05:58.589Z,29.37
2019-04-30T07:08:54.812Z,25.53
2019-04-30T07:11:29.281Z,24.70
2019-04-30T07:14:00.045Z,24.03
2019-04-30T07:16:29.863Z,24.27
2019-04-30T07:18:58.642Z,24.47
2019-04-30T07:21:31.187Z,23.40
2019-04-30T07:23:59.561Z,24.53
2019-04-30T07:26:28.953Z,24.13
2019-04-30T07:29:01.839Z,24.10
2019-04-30T07:31:29.568Z,24.47
2019-04-30T07:33:59.455Z,24.63
2019-04-30T07:36:43.397Z,25.70
2019-04-30T07:38:59.963Z,27.80
2019-04-30T07:41:30.915Z,28.60
2019-04-30T07:43:59.317Z,27.50
2019-04-30T07:46:30.033Z,28.07
2019-04-30T07:49:00.018Z,31.57
2019-04-30T07:51:32.130Z,27.77
2019-04-30T07:53:59.116Z,28.27
2019-04-30T07:56:32.461Z,26.47
2019-04-30T07:59:00.768Z,28.50
2019-04-30T08:01:29.489Z,31.33
2019-04-30T08:04:02.869Z,27.77
2019-04-30T08:06:31.766Z,26.47
2019-04-30T08:09:01.471Z,27.80
2019-04-30T08:11:34.487Z,29.23
2019-04-30T08:14:01.299Z,26.53
2019-04-30T08:16:30.330Z,29.13
2019-04-30T08:18:59.159Z,26.33
2019-04-30T08:21:28.757Z,26.83
2019-04-30T08:23:59.344Z,25.27
2019-04-30T08:26:28.666Z,24.90
2019-04-30T08:28:59.798Z,27.00
2019-04-30T08:31:29.263Z,25.03
2019-04-30T08:33:59.157Z,26.33
2019-04-30T08:36:29.786Z,27.97
2019-04-30T08:38:59.727Z,25.57
2019-04-30T08:41:29.294Z,28.77
2019-04-30T08:43:59.816Z,24.30
2019-04-30T08:46:28.763Z,26.37
2019-04-30T08:48:58.737Z,30.77
2019-04-30T08:51:30.504Z,29.67
2019-04-30T08:53:58.680Z,26.40
2019-04-30T08:56:29.245Z,26.13
2019-04-30T08:58:59.261Z,26.93
2019-04-30T09:01:29.432Z,26.20
2019-04-30T09:03:59.699Z,24.87
2019-04-30T09:06:30.287Z,36.87
2019-04-30T09:09:00.436Z,28.93
2019-04-30T09:11:38.342Z,29.63
2019-04-30T09:13:58.948Z,29.43
2019-04-30T09:16:29.466Z,30.00
2019-04-30T09:18:59.505Z,34.50
2019-04-30T09:21:29.941Z,34.67
2019-04-30T09:23:59.404Z,32.50
2019-04-30T09:26:29.069Z,32.73
2019-04-30T09:28:59.288Z,32.60
2019-04-30T09:31:29.578Z,36.13
2019-04-30T09:34:00.833Z,34.60
2019-04-30T09:36:29.269Z,32.60
2019-04-30T09:38:58.808Z,33.70
2019-04-30T09:41:28.875Z,33.97
2019-04-30T09:43:59.699Z,34.40
2019-04-30T09:46:29.989Z,40.53
2019-04-30T09:48:59.762Z,33.60
2019-04-30T09:51:30.435Z,33.90
2019-04-30T09:54:02.105Z,36.03
2019-04-30T09:56:29.446Z,36.60
2019-04-30T09:58:59.248Z,35.77
2019-04-30T10:01:28.333Z,32.25
2019-04-30T10:03:56.942Z,31.60
2019-04-30T10:06:36.995Z,36.10
2019-04-30T10:08:56.395Z,34.53
2019-04-30T10:11:26.505Z,44.10
2019-04-30T10:13:54.912Z,31.15
2019-04-30T10:16:29.612Z,32.60
2019-04-30T10:18:59.234Z,32.15
2019-04-30T10:21:29.000Z,33.38
2019-04-30T10:24:10.433Z,34.18
2019-04-30T10:26:28.263Z,32.15
2019-04-30T10:28:58.261Z,31.93
2019-04-30T10:31:26.678Z,28.40
2019-04-30T10:33:55.069Z,29.55
2019-04-30T10:36:23.538Z,29.12
2019-04-30T10:38:51.955Z,29.95
2019-04-30T10:41:20.348Z,30.37
2019-04-30T10:43:49.374Z,25.55
2019-04-30T10:46:18.268Z,27.40
2019-04-30T10:48:46.664Z,25.77
2019-04-30T10:51:15.153Z,26.25
2019-04-30T10:53:43.545Z,26.70
2019-04-30T10:56:12.293Z,26.33
2019-04-30T10:58:40.762Z,27.48
2019-04-30T11:01:09.673Z,24.45
2019-04-30T11:03:39.150Z,26.57
2019-04-30T11:06:08.646Z,24.72
2019-04-30T11:08:37.700Z,25.15
2019-04-30T11:11:06.871Z,26.17
2019-04-30T11:13:35.363Z,35.58
2019-04-30T11:16:12.678Z,25.05
2019-04-30T11:18:34.129Z,24.00
2019-04-30T11:21:03.398Z,26.33
2019-04-30T11:23:32.664Z,24.82
2019-04-30T11:26:01.931Z,24.57
2019-04-30T11:28:31.537Z,25.27
2019-04-30T11:31:18.652Z,24.47
2019-04-30T11:33:48.113Z,24.32
2019-04-30T11:36:19.226Z,24.18
2019-04-30T11:38:48.758Z,24.77
2019-04-30T11:41:29.815Z,22.77
2019-04-30T11:43:49.538Z,23.50
2019-04-30T11:46:28.560Z,23.22
2019-04-30T11:48:58.562Z,23.07
2019-04-30T11:51:27.053Z,23.80
2019-04-30T11:53:56.598Z,24.80
2019-04-30T11:56:25.057Z,23.92
2019-04-30T11:58:53.498Z,22.95
2019-04-30T12:01:26.433Z,22.67
2019-04-30T12:03:54.842Z,22.55
2019-04-30T12:06:23.317Z,23.27
2019-04-30T12:09:02.652Z,21.97
2019-04-30T12:11:35.664Z,22.60
2019-04-30T12:14:05.198Z,22.30
2019-04-30T12:16:34.570Z,22.98
2019-04-30T12:19:02.958Z,26.60
2019-04-30T12:21:31.405Z,22.13
2019-04-30T12:23:59.831Z,23.27
2019-04-30T12:26:28.900Z,28.62
2019-04-30T12:28:57.405Z,21.52
2019-04-30T12:31:25.906Z,21.68
2019-04-30T12:33:54.305Z,21.07
2019-04-30T12:36:22.925Z,20.62
2019-04-30T12:38:51.415Z,21.27
2019-04-30T12:41:19.812Z,21.23
2019-04-30T12:43:48.212Z,22.02
2019-04-30T12:46:18.989Z,22.60
2019-04-30T12:48:51.170Z,20.25
2019-04-30T12:51:44.800Z,20.35
2019-04-30T12:54:05.633Z,21.25
2019-04-30T12:56:35.670Z,22.13
2019-04-30T12:59:04.132Z,20.40
2019-04-30T13:01:34.188Z,21.30
2019-04-30T13:04:02.744Z,23.02
2019-04-30T13:06:31.576Z,25.80
2019-04-30T13:09:01.395Z,21.73
2019-04-30T13:11:31.690Z,21.52
2019-04-30T13:14:01.352Z,24.60
2019-04-30T13:16:30.737Z,20.55
2019-04-30T13:18:59.456Z,19.70
2019-04-30T13:21:28.580Z,20.45
2019-04-30T13:23:57.519Z,22.02
2019-04-30T13:26:25.925Z,22.90
2019-04-30T13:28:58.928Z,32.50
2019-04-30T13:31:29.463Z,29.52
2019-04-30T13:34:15.476Z,26.30
2019-04-30T13:36:43.861Z,22.15
2019-04-30T13:39:22.697Z,25.12
2019-04-30T13:41:52.733Z,23.55
2019-04-30T13:44:22.765Z,23.18
2019-04-30T13:46:51.180Z,23.77
2019-04-30T13:49:20.038Z,23.52
2019-04-30T13:51:48.442Z,37.58
2019-04-30T13:54:16.836Z,22.32
2019-04-30T13:56:45.225Z,23.20
2019-04-30T13:59:13.624Z,20.92
2019-04-30T14:01:42.113Z,19.40
2019-04-30T14:04:15.261Z,21.87
2019-04-30T14:06:51.378Z,22.35
2019-04-30T14:09:24.377Z,24.23
2019-04-30T14:11:52.776Z,25.15
2019-04-30T14:14:21.243Z,27.05
2019-04-30T14:16:49.740Z,23.77
2019-04-30T14:19:19.555Z,26.07
2019-04-30T14:21:49.419Z,21.62
2019-04-30T14:24:19.280Z,25.08
2019-04-30T14:26:49.100Z,23.70
2019-04-30T14:29:17.999Z,19.67
2019-04-30T14:31:46.480Z,21.33
2019-04-30T14:34:14.874Z,22.37
2019-04-30T14:36:43.264Z,21.25
2019-04-30T14:39:16.387Z,23.20
2019-04-30T14:41:42.756Z,22.48
2019-04-30T14:44:14.494Z,22.62
2019-04-30T14:47:04.997Z,21.70
2019-04-30T14:49:56.792Z,21.77
2019-04-30T14:52:15.084Z,20.88
2019-04-30T14:55:03.364Z,19.70
2019-04-30T14:57:42.576Z,22.00
2019-04-30T15:00:31.834Z,21.90
2019-04-30T15:03:03.996Z,23.87
2019-04-30T15:05:38.960Z,21.00
2019-04-30T15:08:02.605Z,19.75
2019-04-30T15:10:30.992Z,21.05
2019-04-30T15:13:00.232Z,20.25
2019-04-30T15:15:29.527Z,19.95
2019-04-30T15:17:59.289Z,23.85
2019-04-30T15:20:29.661Z,21.17
2019-04-30T15:23:19.177Z,21.95
2019-04-30T15:25:48.561Z,19.90
2019-04-30T15:28:16.994Z,20.23
2019-04-30T15:30:45.396Z,22.65
2019-04-30T15:33:18.465Z,23.75
2019-04-30T15:35:48.179Z,21.25
2019-04-30T15:38:17.008Z,22.13
2019-04-30T15:40:45.409Z,22.65
2019-04-30T15:43:13.838Z,24.40
2019-04-30T15:45:42.228Z,19.90
2019-04-30T15:48:10.632Z,22.77
2019-04-30T15:50:39.290Z,20.30
2019-04-30T15:53:09.465Z,21.65
2019-04-30T15:55:38.044Z,19.65
2019-04-30T15:58:10.822Z,28.60
2019-04-30T16:00:39.450Z,28.90
2019-04-30T16:03:09.939Z,30.32
2019-04-30T16:05:42.732Z,26.33
2019-04-30T16:08:12.761Z,33.00
2019-04-30T16:10:51.996Z,32.50
2019-04-30T16:13:30.351Z,31.73
2019-04-30T16:15:59.179Z,36.35
2019-04-30T16:18:30.390Z,36.30
2019-04-30T16:20:59.520Z,41.53
2019-04-30T16:23:27.936Z,36.10
2019-04-30T16:25:56.409Z,37.40
2019-04-30T16:28:24.802Z,37.83
2019-04-30T16:30:53.234Z,35.73
2019-04-30T16:33:21.616Z,39.43
2019-04-30T16:35:51.118Z,40.23
2019-04-30T16:38:21.005Z,35.83
2019-04-30T16:40:49.986Z,36.80
2019-04-30T16:43:20.143Z,39.00
2019-04-30T16:45:49.388Z,42.80
2019-04-30T16:48:19.314Z,39.80
2019-04-30T16:50:51.087Z,40.23
2019-04-30T16:53:18.657Z,39.43
2019-04-30T16:55:50.010Z,45.50
2019-04-30T16:58:19.602Z,39.70
2019-04-30T17:00:49.236Z,39.57
2019-04-30T17:03:22.104Z,40.23
2019-04-30T17:05:52.135Z,39.80
2019-04-30T17:08:22.174Z,39.10
2019-04-30T17:10:58.346Z,37.50
2019-04-30T17:13:31.072Z,39.43
2019-04-30T17:16:11.299Z,38.23
2019-04-30T17:18:41.855Z,39.93
2019-04-30T17:21:10.144Z,37.37
2019-04-30T17:23:38.546Z,39.53
2019-04-30T17:26:06.997Z,37.03
2019-04-30T17:28:35.642Z,37.00
2019-04-30T17:31:04.037Z,32.63
2019-04-30T17:33:32.441Z,36.13
2019-04-30T17:36:00.831Z,35.67
2019-04-30T17:38:29.240Z,37.60
2019-04-30T17:40:57.633Z,37.33
2019-04-30T17:43:26.025Z,36.07
2019-04-30T17:45:54.447Z,37.87
2019-04-30T17:48:22.866Z,36.87
2019-04-30T17:50:51.260Z,37.20
2019-04-30T17:53:21.338Z,34.73
2019-04-30T17:55:49.736Z,35.50
2019-04-30T17:58:20.554Z,34.20
2019-04-30T18:00:49.960Z,35.77
2019-04-30T18:03:18.968Z,34.73
2019-04-30T18:05:49.184Z,38.17
2019-04-30T18:08:18.357Z,32.90
2019-04-30T18:10:46.760Z,33.60
2019-04-30T18:13:15.168Z,32.53
2019-04-30T18:15:43.763Z,34.90
2019-04-30T18:18:25.836Z,36.63
2019-04-30T18:21:04.775Z,34.10
2019-04-30T18:23:37.993Z,35.20
2019-04-30T18:26:08.024Z,36.00
2019-04-30T18:28:36.439Z,39.33
2019-04-30T18:31:06.429Z,34.83
2019-04-30T18:33:34.824Z,33.73
2019-04-30T18:36:03.295Z,35.70
2019-04-30T18:38:31.777Z,38.93
2019-04-30T18:41:01.040Z,37.60
2019-04-30T18:43:29.446Z,34.90
2019-04-30T18:45:57.840Z,34.20
2019-04-30T18:48:26.244Z,33.27
2019-04-30T18:50:54.637Z,37.63
2019-04-30T18:53:24.669Z,34.30
2019-04-30T18:55:53.077Z,37.63
2019-04-30T18:58:21.468Z,36.30
2019-04-30T19:00:50.012Z,35.90
2019-04-30T19:03:21.558Z,36.10
2019-04-30T19:05:50.233Z,35.90
2019-04-30T19:08:29.494Z,38.00
2019-04-30T19:11:00.491Z,39.70
2019-04-30T19:13:30.685Z,39.70
2019-04-30T19:16:18.759Z,37.07
2019-04-30T19:18:47.717Z,40.77
2019-04-30T19:21:16.129Z,41.93
2019-04-30T19:23:44.541Z,40.90
2019-04-30T19:26:12.940Z,37.40
2019-04-30T19:28:41.337Z,40.40
2019-04-30T19:31:11.972Z,39.83
2019-04-30T19:33:40.389Z,42.33
2019-04-30T19:36:09.799Z,40.13
2019-04-30T19:38:38.880Z,41.00
2019-04-30T19:41:10.641Z,43.87
2019-04-30T19:43:39.077Z,39.80
2019-04-30T19:46:09.206Z,40.70
2019-04-30T19:48:39.736Z,43.43
2019-04-30T19:51:08.877Z,42.10
2019-04-30T19:53:39.521Z,44.77
2019-04-30T19:56:07.936Z,43.93
2019-04-30T19:58:48.740Z,46.00
2019-04-30T20:01:06.469Z,46.37
2019-04-30T20:03:34.853Z,49.30
2019-04-30T20:06:03.269Z,49.33
2019-04-30T20:08:31.658Z,47.97
2019-04-30T20:11:00.044Z,49.47
2019-04-30T20:13:36.731Z,50.00
2019-04-30T20:15:59.401Z,54.30
2019-04-30T20:18:29.233Z,47.70
2019-04-30T20:21:01.180Z,50.93
2019-04-30T20:23:29.724Z,54.27
2019-04-30T20:25:58.109Z,50.90
2019-04-30T20:28:38.426Z,51.93
2019-04-30T20:30:56.621Z,58.87
2019-04-30T20:33:25.008Z,54.00
2019-04-30T20:35:53.405Z,54.30
2019-04-30T20:38:25.868Z,57.70
2019-04-30T20:41:00.159Z,58.07
2019-04-30T20:43:24.402Z,60.40
2019-04-30T20:45:52.789Z,60.03
2019-04-30T20:48:21.189Z,58.77
2019-04-30T20:50:49.577Z,64.37
2019-04-30T20:53:19.779Z,59.57
2019-04-30T20:55:49.536Z,57.03
2019-04-30T20:58:18.278Z,60.70
2019-04-30T21:00:46.684Z,62.93
2019-04-30T21:03:15.069Z,64.67
2019-04-30T21:05:43.459Z,64.27
2019-04-30T21:08:11.874Z,70.70
2019-04-30T21:10:40.243Z,68.70
2019-04-30T21:13:10.964Z,69.97
2019-04-30T21:15:39.544Z,75.87
2019-04-30T21:18:09.508Z,73.70
2019-04-30T21:20:38.870Z,75.10
2019-04-30T21:23:09.305Z,73.57
2019-04-30T21:25:38.717Z,76.73
2019-04-30T21:28:09.597Z,78.22
2019-04-30T21:30:37.662Z,76.33
2019-04-30T21:33:16.634Z,80.97
2019-04-30T21:35:48.562Z,83.47
2019-04-30T21:38:19.375Z,82.67
2019-04-30T21:40:49.231Z,85.57
2019-04-30T21:43:17.772Z,76.67
2019-04-30T21:45:46.174Z,79.40
2019-04-30T21:48:14.566Z,76.60
2019-04-30T21:50:42.961Z,72.57
2019-04-30T21:53:11.345Z,71.23
2019-04-30T21:55:40.001Z,75.30
2019-04-30T21:58:09.540Z,75.83
2019-04-30T22:00:42.669Z,75.53
2019-04-30T22:03:11.149Z,76.00
2019-04-30T22:05:39.663Z,80.33
2019-04-30T22:08:09.090Z,75.37
2019-04-30T22:10:38.150Z,79.07
2019-04-30T22:13:08.757Z,77.63
2019-04-30T22:15:36.719Z,75.80
2019-04-30T22:18:05.136Z,77.50
2019-04-30T22:20:33.533Z,76.77
2019-04-30T22:23:02.964Z,77.57
2019-04-30T22:25:31.446Z,81.27
2019-04-30T22:27:59.892Z,87.07
2019-04-30T22:30:28.300Z,83.47
2019-04-30T22:32:59.370Z,88.60
2019-04-30T22:35:28.484Z,88.73
2019-04-30T22:38:01.452Z,87.37
2019-04-30T22:40:31.579Z,83.50
2019-04-30T22:42:59.949Z,85.63
2019-04-30T22:45:30.006Z,88.10
2019-04-30T22:47:58.838Z,84.30
2019-04-30T22:50:27.452Z,82.37
2019-04-30T22:52:55.847Z,87.93
2019-04-30T22:55:24.236Z,92.13
2019-04-30T22:57:52.636Z,105.63
2019-04-30T23:00:22.687Z,109.03
2019-04-30T23:02:58.681Z,101.77
2019-04-30T23:05:27.076Z,109.70
2019-04-30T23:07:55.459Z,108.87
2019-04-30T23:10:24.668Z,108.17
2019-04-30T23:12:53.167Z,114.53
2019-04-30T23:15:21.686Z,112.40
2019-04-30T23:17:50.085Z,108.10
2019-04-30T23:20:18.556Z,107.93
2019-04-30T23:22:46.944Z,105.70
2019-04-30T23:25:15.397Z,95.80
2019-04-30T23:27:43.797Z,93.97
2019-04-30T23:30:13.018Z,90.13
2019-04-30T23:32:41.412Z,91.67
2019-04-30T23:35:09.937Z,93.10
2019-04-30T23:37:38.342Z,91.87
2019-04-30T23:40:24.155Z,89.47
2019-04-30T23:42:53.962Z,92.20
2019-04-30T23:45:24.082Z,94.80
2019-04-30T23:47:52.540Z,99.93
2019-04-30T23:50:21.009Z,106.07
2019-04-30T23:52:49.401Z,119.03
2019-04-30T23:55:17.876Z,119.73
2019-04-30T23:57:46.264Z,123.03
